Time;durP1;ratioP1;P1;durP2;ratioP2;P2;SDS_P1;SDS_P2;PMS_P1;PMS_P2;Temp;Humidity;BMP_temperature;BMP_pressure;BME280_temperature;BME280_humidity;BME280_pressure;Samples;Min_cycle;Max_cycle;Signal;HPM_P1;HPM_P2
2023/11/26 00:00:14;;;;;;;14.95;3.28;;;;;;;3.35;100.00;101193.44;5059502;28;20032;-73
2023/11/26 00:02:39;;;;;;;17.17;4.03;;;;;;;3.35;100.00;101182.38;5062368;28;20031;-73
2023/11/26 00:05:05;;;;;;;20.08;3.78;;;;;;;3.34;100.00;101183.31;5054996;28;20561;-73
2023/11/26 00:07:31;;;;;;;21.20;4.28;;;;;;;3.35;100.00;101182.38;5044136;28;20087;-73
2023/11/26 00:09:56;;;;;;;16.05;4.43;;;;;;;3.36;100.00;101187.41;5061651;28;20037;-73
2023/11/26 00:12:23;;;;;;;17.98;4.50;;;;;;;3.36;100.00;101192.53;5060427;28;20085;-73
2023/11/26 00:14:49;;;;;;;9.27;3.88;;;;;;;3.31;100.00;101199.69;5057211;28;20109;-73
2023/11/26 00:17:15;;;;;;;23.67;5.20;;;;;;;3.36;100.00;101191.72;5060156;28;20124;-73
2023/11/26 00:19:40;;;;;;;18.15;3.42;;;;;;;3.30;100.00;101195.50;5065448;28;20028;-73
2023/11/26 00:22:06;;;;;;;28.98;4.30;;;;;;;3.31;100.00;101197.13;5049009;28;20039;-73
2023/11/26 00:24:32;;;;;;;22.10;4.13;;;;;;;3.37;100.00;101183.94;5063831;28;20043;-73
2023/11/26 00:26:57;;;;;;;18.17;5.13;;;;;;;3.35;100.00;101190.88;5065231;28;20024;-73
2023/11/26 00:29:23;;;;;;;19.00;3.88;;;;;;;3.35;100.00;101202.88;5062647;28;20037;-73
2023/11/26 00:31:49;;;;;;;29.08;5.43;;;;;;;3.38;100.00;101200.13;5045452;28;20106;-73
2023/11/26 00:34:15;;;;;;;33.63;5.35;;;;;;;3.35;100.00;101196.00;5061934;28;20843;-73
2023/11/26 00:36:40;;;;;;;20.40;5.10;;;;;;;3.28;100.00;101202.47;5048637;28;20029;-73
2023/11/26 00:39:06;;;;;;;11.70;4.30;;;;;;;3.33;100.00;101199.59;5049666;28;20429;-73
2023/11/26 00:41:32;;;;;;;18.40;4.00;;;;;;;3.30;100.00;101201.44;5048344;28;20021;-74
2023/11/26 00:43:57;;;;;;;17.30;5.00;;;;;;;3.22;100.00;101213.09;5065345;28;20394;-73
2023/11/26 00:46:23;;;;;;;18.48;3.88;;;;;;;3.14;100.00;101212.75;5064062;28;20040;-73
2023/11/26 00:48:48;;;;;;;23.98;4.25;;;;;;;3.18;100.00;101217.59;5065756;28;20052;-73
2023/11/26 00:51:21;;;;;;;16.45;4.38;;;;;;;3.16;100.00;101214.28;5058841;28;20044;-73
2023/11/26 00:53:48;;;;;;;27.15;4.45;;;;;;;3.08;100.00;101211.41;5064718;28;20135;-73
2023/11/26 00:56:14;;;;;;;17.00;4.07;;;;;;;3.03;100.00;101213.44;5048422;28;20128;-73
2023/11/26 00:58:40;;;;;;;19.42;3.65;;;;;;;2.99;100.00;101202.56;5064885;28;20115;-73
2023/11/26 01:01:06;;;;;;;16.42;4.40;;;;;;;2.97;100.00;101203.59;5063663;28;20041;-73
2023/11/26 01:03:31;;;;;;;12.63;4.40;;;;;;;2.97;100.00;101209.50;5065533;28;20025;-73
2023/11/26 01:05:57;;;;;;;21.63;4.00;;;;;;;2.95;100.00;101210.53;5052386;28;20032;-73
2023/11/26 01:08:24;;;;;;;13.25;4.05;;;;;;;2.99;100.00;101207.69;5060996;28;20036;-73
2023/11/26 01:10:50;;;;;;;16.75;4.53;;;;;;;2.92;100.00;101203.88;5045531;28;20103;-73
2023/11/26 01:13:16;;;;;;;25.25;4.30;;;;;;;2.96;100.00;101204.47;5060845;28;20533;-73
2023/11/26 01:15:42;;;;;;;21.55;4.13;;;;;;;2.90;100.00;101213.38;5064808;28;20043;-74
2023/11/26 01:18:07;;;;;;;18.45;4.75;;;;;;;2.89;100.00;101214.31;5063581;28;20034;-73
2023/11/26 01:20:33;;;;;;;16.45;3.75;;;;;;;2.83;100.00;101217.25;5049618;28;20024;-73
2023/11/26 01:22:58;;;;;;;13.57;3.92;;;;;;;2.79;100.00;101215.78;5064503;28;20035;-73
2023/11/26 01:25:23;;;;;;;20.42;5.75;;;;;;;2.72;100.00;101213.63;5062918;28;20495;-73
2023/11/26 01:27:49;;;;;;;27.60;4.53;;;;;;;2.71;100.00;101219.66;5061080;28;20093;-74
2023/11/26 01:30:14;;;;;;;15.68;3.88;;;;;;;2.63;100.00;101211.63;5044510;28;20121;-73
2023/11/26 01:32:41;;;;;;;19.70;3.85;;;;;;;2.65;100.00;101216.66;5043767;28;20452;-73
2023/11/26 01:35:08;;;;;;;17.20;4.32;;;;;;;2.69;100.00;101212.97;5059089;28;20033;-73
2023/11/26 01:37:34;;;;;;;18.52;4.00;;;;;;;2.60;100.00;101208.41;5051592;28;20094;-73
2023/11/26 01:40:00;;;;;;;26.15;4.13;;;;;;;2.56;100.00;101207.78;5062125;28;20029;-73
2023/11/26 01:42:25;;;;;;;22.23;4.05;;;;;;;2.53;100.00;101216.47;5061850;28;20029;-73
2023/11/26 01:44:51;;;;;;;17.60;4.15;;;;;;;2.50;100.00;101213.28;5063479;28;20666;-73
2023/11/26 01:47:17;;;;;;;16.98;3.28;;;;;;;2.48;100.00;101203.13;5062318;28;20169;-73
2023/11/26 01:49:43;;;;;;;16.38;3.65;;;;;;;2.46;100.00;101216.94;5038107;28;20108;-73
2023/11/26 01:52:10;;;;;;;16.15;3.60;;;;;;;2.39;100.00;101218.22;5046087;28;20040;-73
2023/11/26 01:54:38;;;;;;;27.65;5.60;;;;;;;2.41;100.00;101216.41;5054706;28;20486;-73
2023/11/26 01:57:08;;;;;;;17.20;3.88;;;;;;;2.37;100.00;101233.69;5074208;28;20032;-73
2023/11/26 01:59:34;;;;;;;20.10;4.30;;;;;;;2.44;100.00;101229.84;5039143;28;20025;-73
2023/11/26 02:02:00;;;;;;;11.45;3.65;;;;;;;2.40;100.00;101230.13;5060182;28;20124;-73
2023/11/26 02:04:25;;;;;;;16.70;4.18;;;;;;;2.28;100.00;101224.84;5060973;28;20115;-73
2023/11/26 02:06:54;;;;;;;26.83;4.40;;;;;;;2.32;100.00;101228.03;5062494;28;20033;-73
2023/11/26 02:09:20;;;;;;;14.30;3.83;;;;;;;2.33;100.00;101225.34;5062230;28;20439;-73
2023/11/26 02:11:46;;;;;;;17.30;3.95;;;;;;;2.37;100.00;101223.44;5061920;28;20028;-73
2023/11/26 02:14:12;;;;;;;17.55;4.28;;;;;;;2.28;100.00;101226.56;5064204;28;20033;-73
2023/11/26 02:16:38;;;;;;;13.13;4.47;;;;;;;2.24;100.00;101232.78;5045775;28;20033;-73
2023/11/26 02:19:19;;;;;;;18.42;4.47;;;;;;;2.16;100.00;101227.28;5050168;28;20032;-73
2023/11/26 02:21:45;;;;;;;14.57;3.30;;;;;;;2.13;100.00;101229.13;5057172;28;20051;-73
2023/11/26 02:24:14;;;;;;;13.90;3.72;;;;;;;2.11;100.00;101233.50;5043914;28;20032;-73
2023/11/26 02:26:40;;;;;;;21.17;4.72;;;;;;;2.06;100.00;101232.13;5062227;28;20029;-73
2023/11/26 02:29:08;;;;;;;19.23;4.28;;;;;;;2.01;100.00;101229.84;5049946;28;20443;-73
2023/11/26 02:31:33;;;;;;;10.80;3.45;;;;;;;1.97;100.00;101225.81;5056816;28;20495;-73
2023/11/26 02:33:59;;;;;;;16.77;3.83;;;;;;;1.95;100.00;101225.09;5057262;28;20025;-73
2023/11/26 02:36:27;;;;;;;25.30;4.47;;;;;;;1.95;100.00;101225.09;5058724;28;20037;-73
2023/11/26 02:38:52;;;;;;;19.33;4.63;;;;;;;1.98;100.00;101232.59;5063486;28;20025;-73
2023/11/26 02:41:19;;;;;;;13.73;4.70;;;;;;;1.93;100.00;101237.97;5059549;28;20561;-74
2023/11/26 02:43:45;;;;;;;11.07;4.15;;;;;;;1.89;100.00;101231.38;5064875;28;20047;-73
2023/11/26 02:46:11;;;;;;;14.57;4.38;;;;;;;1.86;100.00;101238.41;5047634;28;20048;-73
2023/11/26 02:48:36;;;;;;;11.48;3.70;;;;;;;1.83;100.00;101233.47;5054477;28;20040;-73
2023/11/26 02:51:02;;;;;;;12.68;4.05;;;;;;;1.81;100.00;101236.13;5057716;28;20032;-73
2023/11/26 02:53:27;;;;;;;22.67;5.03;;;;;;;1.74;100.00;101235.63;5044376;28;20087;-73
2023/11/26 02:55:54;;;;;;;8.48;3.70;;;;;;;1.72;100.00;101237.47;5044831;28;20028;-74
2023/11/26 02:58:20;;;;;;;16.02;3.80;;;;;;;1.65;100.00;101238.72;5058339;28;20039;-73
2023/11/26 03:00:47;;;;;;;11.40;4.55;;;;;;;1.65;100.00;101238.72;5059360;28;20962;-73
2023/11/26 03:03:12;;;;;;;14.93;3.90;;;;;;;1.64;100.00;101242.22;5062432;28;20036;-72
2023/11/26 03:05:38;;;;;;;12.93;3.80;;;;;;;1.63;100.00;101243.09;5047294;28;20430;-73
2023/11/26 03:08:21;;;;;;;16.40;4.05;;;;;;;1.58;100.00;101239.97;5064312;28;20028;-73
2023/11/26 03:13:34;;;;;;;12.07;3.78;;;;;;;1.52;100.00;101253.09;5061134;28;20071;-73
2023/11/26 03:15:59;;;;;;;10.80;3.33;;;;;;;1.50;100.00;101244.72;5051046;28;20071;-73
2023/11/26 03:18:25;;;;;;;13.50;4.45;;;;;;;1.51;100.00;101251.47;5064387;28;20039;-73
2023/11/26 03:20:55;;;;;;;15.02;4.50;;;;;;;1.51;100.00;101251.47;5053693;28;20071;-73
2023/11/26 03:23:24;;;;;;;18.52;4.55;;;;;;;1.47;100.00;101244.88;5046796;28;20071;-74
2023/11/26 03:25:53;;;;;;;12.20;4.70;;;;;;;1.45;100.00;101244.13;5059384;28;20025;-73
2023/11/26 03:28:19;;;;;;;19.80;6.10;;;;;;;1.47;100.00;101248.28;5061648;28;20090;-72
2023/11/26 03:30:46;;;;;;;16.83;5.93;;;;;;;1.44;100.00;101242.50;5059246;28;20036;-73
2023/11/26 03:33:15;;;;;;;15.02;4.93;;;;;;;1.40;100.00;101243.59;5062434;28;20040;-73
2023/11/26 03:35:41;;;;;;;16.13;5.03;;;;;;;1.38;100.00;101247.97;5077349;28;20033;-73
2023/11/26 03:38:08;;;;;;;22.13;8.20;;;;;;;1.40;100.00;101248.69;5066720;28;20493;-73
2023/11/26 03:40:34;;;;;;;20.90;7.47;;;;;;;1.37;100.00;101247.13;5060689;28;20100;-73
2023/11/26 03:43:00;;;;;;;19.02;6.22;;;;;;;1.41;100.00;101256.25;5057165;28;20082;-73
2023/11/26 03:45:25;;;;;;;26.02;7.45;;;;;;;1.38;100.00;101250.53;5060884;28;20045;-73
2023/11/26 03:47:51;;;;;;;25.13;7.45;;;;;;;1.43;100.00;101249.34;5049915;28;20079;-73
2023/11/26 03:50:18;;;;;;;24.30;7.10;;;;;;;1.42;100.00;101246.88;5043294;28;20045;-73
2023/11/26 03:52:44;;;;;;;22.23;6.63;;;;;;;1.37;100.00;101254.78;5046927;28;20036;-73
2023/11/26 03:55:10;;;;;;;20.30;8.20;;;;;;;1.35;100.00;101254.06;5064867;28;20059;-73
2023/11/26 03:57:36;;;;;;;28.52;7.47;;;;;;;1.33;100.00;101249.03;5063034;28;20033;-73
2023/11/26 04:00:08;;;;;;;19.20;6.82;;;;;;;1.30;100.00;101250.91;5050229;28;20029;-73
2023/11/26 04:02:39;;;;;;;22.17;8.13;;;;;;;1.28;100.00;101245.06;5067328;28;20040;-73
2023/11/26 04:05:05;;;;;;;28.67;10.02;;;;;;;1.29;100.00;101249.28;5062281;28;20040;-73
2023/11/26 04:07:31;;;;;;;18.80;9.70;;;;;;;1.31;100.00;101243.19;5065872;28;20032;-73
2023/11/26 04:09:57;;;;;;;23.35;9.20;;;;;;;1.32;100.00;101251.69;5062269;28;20038;-73
2023/11/26 04:12:23;;;;;;;26.70;10.27;;;;;;;1.34;100.00;101245.56;5068889;28;20500;-72
2023/11/26 04:15:07;;;;;;;29.77;11.05;;;;;;;1.45;100.00;101247.53;5049000;28;20063;-73
2023/11/26 04:17:34;;;;;;;26.35;10.85;;;;;;;1.50;100.00;101254.94;5061257;28;20391;-74
2023/11/26 04:20:00;;;;;;;24.23;10.60;;;;;;;1.51;100.00;101252.28;5061269;28;20111;-73
2023/11/26 04:22:27;;;;;;;29.38;10.60;;;;;;;1.66;100.00;101248.06;5045559;28;20466;-73
2023/11/26 04:24:53;;;;;;;28.98;11.15;;;;;;;1.65;100.00;101253.25;5052064;28;20505;-73
2023/11/26 04:27:21;;;;;;;29.73;11.00;;;;;;;1.64;100.00;101254.16;5061822;28;20028;-73
2023/11/26 04:29:49;;;;;;;23.63;11.05;;;;;;;1.65;100.00;101258.38;5067169;28;20050;-73
2023/11/26 04:32:14;;;;;;;22.63;11.18;;;;;;;1.60;100.00;101263.75;5064127;28;20044;-73
2023/11/26 04:34:40;;;;;;;39.38;13.10;;;;;;;1.77;100.00;101257.66;5065164;28;20103;-73
2023/11/26 04:37:11;;;;;;;40.13;11.73;;;;;;;1.67;100.00;101257.34;5051217;28;20053;-73
2023/11/26 04:39:37;;;;;;;32.05;12.73;;;;;;;1.73;100.00;101251.91;5065537;28;20036;-72
2023/11/26 04:42:03;;;;;;;29.20;12.73;;;;;;;1.76;100.00;101256.00;5064428;28;20104;-73
2023/11/26 04:44:29;;;;;;;36.83;12.73;;;;;;;1.71;100.00;101256.28;5069011;28;20119;-72
2023/11/26 04:46:54;;;;;;;32.40;12.68;;;;;;;1.74;100.00;101258.66;5066036;28;20028;-73
2023/11/26 04:49:20;;;;;;;37.33;13.55;;;;;;;1.81;100.00;101260.84;5064461;28;20064;-73
2023/11/26 04:51:46;;;;;;;31.20;12.90;;;;;;;1.79;100.00;101258.41;5063884;28;20033;-73
2023/11/26 04:54:11;;;;;;;29.70;13.70;;;;;;;1.86;100.00;101258.88;5066421;28;20035;-73
2023/11/26 04:56:38;;;;;;;30.10;13.05;;;;;;;1.79;100.00;101260.97;5062551;28;20032;-72
2023/11/26 04:59:04;;;;;;;39.20;13.80;;;;;;;1.79;100.00;101265.22;5048027;28;20616;-72
2023/11/26 05:01:31;;;;;;;28.75;13.10;;;;;;;1.78;100.00;101259.31;5063410;28;20037;-73
2023/11/26 05:03:56;;;;;;;33.70;13.35;;;;;;;1.77;100.00;101257.66;5065044;28;20043;-72
2023/11/26 05:06:22;;;;;;;32.50;14.35;;;;;;;1.72;100.00;101264.78;5062079;28;20037;-72
2023/11/26 05:08:48;;;;;;;51.50;16.40;;;;;;;1.81;100.00;101263.41;5057267;28;20069;-73
2023/11/26 05:11:13;;;;;;;33.03;14.00;;;;;;;1.86;100.00;101256.31;5048174;28;20033;-73
2023/11/26 05:13:39;;;;;;;37.17;14.18;;;;;;;1.86;100.00;101256.31;5067373;28;20029;-73
2023/11/26 05:16:04;;;;;;;34.75;14.85;;;;;;;1.75;100.00;101262.88;5065365;28;20039;-73
2023/11/26 05:18:30;;;;;;;39.17;16.52;;;;;;;1.66;100.00;101257.47;5065788;28;20035;-73
2023/11/26 05:20:56;;;;;;;40.72;16.55;;;;;;;1.75;100.00;101264.59;5063684;28;20041;-73
2023/11/26 05:23:21;;;;;;;36.33;15.45;;;;;;;1.74;100.00;101263.78;5063310;28;20078;-73
2023/11/26 05:25:48;;;;;;;40.20;17.27;;;;;;;1.72;100.00;101268.16;5065125;28;20040;-73
2023/11/26 05:28:13;;;;;;;43.85;18.33;;;;;;;1.69;100.00;101272.63;5060665;28;20036;-73
2023/11/26 05:30:39;;;;;;;40.78;16.27;;;;;;;1.65;100.00;101273.69;5067659;28;20036;-73
2023/11/26 05:33:05;;;;;;;36.88;18.20;;;;;;;1.62;100.00;101279.81;5063314;28;20550;-73
2023/11/26 05:35:30;;;;;;;48.92;18.05;;;;;;;1.60;100.00;101275.69;5062670;28;21254;-73
2023/11/26 05:37:56;;;;;;;41.10;16.45;;;;;;;1.53;100.00;101272.66;5049699;28;20024;-74
2023/11/26 05:40:22;;;;;;;38.85;17.38;;;;;;;1.55;100.00;101273.41;5060563;28;20047;-73
2023/11/26 05:42:49;;;;;;;40.90;18.83;;;;;;;1.63;100.00;101278.91;5063148;28;20082;-73
2023/11/26 05:45:15;;;;;;;48.45;19.52;;;;;;;1.54;100.00;101279.41;5060842;28;20043;-73
2023/11/26 05:47:40;;;;;;;48.28;18.15;;;;;;;1.60;100.00;101278.25;5053200;28;20107;-74
2023/11/26 05:50:06;;;;;;;46.40;19.73;;;;;;;1.58;100.00;101282.63;5063797;28;20033;-73
2023/11/26 05:52:32;;;;;;;44.70;19.08;;;;;;;1.50;100.00;101275.38;5061813;28;20524;-73
2023/11/26 05:54:58;;;;;;;49.90;20.48;;;;;;;1.47;100.00;101268.72;5046718;28;20048;-73
2023/11/26 05:57:23;;;;;;;50.67;21.65;;;;;;;1.64;100.00;101278.00;5061900;28;20372;-73
2023/11/26 05:59:49;;;;;;;46.83;19.50;;;;;;;1.66;100.00;101277.91;5063628;28;20114;-73
2023/11/26 06:02:15;;;;;;;46.53;21.05;;;;;;;1.56;100.00;101277.59;5065654;28;20124;-73
2023/11/26 06:04:40;;;;;;;51.63;22.65;;;;;;;1.68;100.00;101281.22;5050982;28;20033;-73
2023/11/26 06:07:06;;;;;;;48.95;21.55;;;;;;;1.65;100.00;101284.75;5062310;28;20530;-73
2023/11/26 06:09:31;;;;;;;55.22;22.38;;;;;;;1.60;100.00;101271.41;5064305;28;20049;-73
2023/11/26 06:11:57;;;;;;;51.97;22.95;;;;;;;1.59;100.00;101279.97;5065328;28;20033;-73
2023/11/26 06:14:23;;;;;;;49.38;23.33;;;;;;;1.57;100.00;101278.44;5061278;28;20534;-73
2023/11/26 06:16:49;;;;;;;50.88;23.98;;;;;;;1.58;100.00;101286.00;5060611;28;20048;-73
2023/11/26 06:19:16;;;;;;;60.78;24.70;;;;;;;1.63;100.00;101280.63;5064726;28;20040;-73
2023/11/26 06:21:42;;;;;;;52.60;21.42;;;;;;;1.59;100.00;101274.06;5063270;28;20120;-73
2023/11/26 06:24:09;;;;;;;58.25;25.10;;;;;;;1.61;100.00;101280.72;5054729;28;20535;-73
2023/11/26 06:26:35;;;;;;;64.75;25.20;;;;;;;1.63;100.00;101275.53;5061985;28;20047;-73
2023/11/26 06:29:01;;;;;;;55.42;24.38;;;;;;;1.69;100.00;101281.09;5059273;28;20104;-73
2023/11/26 06:31:26;;;;;;;62.63;24.15;;;;;;;1.66;100.00;101278.72;5043622;28;20507;-73
2023/11/26 06:33:52;;;;;;;59.03;22.60;;;;;;;1.68;100.00;101273.53;5061418;28;20037;-73
2023/11/26 06:36:24;;;;;;;52.78;22.17;;;;;;;1.67;100.00;101277.00;5059084;28;20052;-73
2023/11/26 06:38:51;;;;;;;59.83;22.40;;;;;;;1.82;100.00;101281.22;5045322;28;20047;-73
2023/11/26 06:41:27;;;;;;;52.70;21.08;;;;;;;1.74;100.00;101274.00;5042259;28;20047;-73
2023/11/26 06:43:54;;;;;;;54.88;23.77;;;;;;;1.70;100.00;101280.19;5056497;28;20107;-73
2023/11/26 06:46:22;;;;;;;146.85;46.42;;;;;;;1.70;100.00;101276.84;5059060;28;20033;-73
2023/11/26 06:48:47;;;;;;;66.40;25.30;;;;;;;1.68;100.00;101276.09;5062573;28;20039;-73
2023/11/26 06:51:13;;;;;;;56.13;22.88;;;;;;;1.67;100.00;101272.69;5064727;28;20032;-73
2023/11/26 06:53:39;;;;;;;69.43;29.63;;;;;;;1.75;100.00;101273.09;5058956;28;20442;-73
2023/11/26 06:56:06;;;;;;;65.57;28.65;;;;;;;1.68;100.00;101281.22;5060264;28;20044;-73
2023/11/26 06:58:36;;;;;;;63.42;27.70;;;;;;;1.67;100.00;101284.66;5058886;28;20032;-73
2023/11/26 07:01:01;;;;;;;66.35;24.83;;;;;;;1.75;100.00;101282.47;5060988;28;20032;-73
2023/11/26 07:03:27;;;;;;;56.85;26.67;;;;;;;1.70;100.00;101282.75;5046858;28;20033;-73
2023/11/26 07:05:53;;;;;;;57.88;23.98;;;;;;;1.79;100.00;101278.88;5060653;28;20047;-74
2023/11/26 07:08:18;;;;;;;57.58;24.80;;;;;;;1.91;100.00;101270.47;5060604;28;20586;-73
2023/11/26 07:10:43;;;;;;;60.33;22.83;;;;;;;1.87;100.00;101273.31;5064274;28;20036;-73
2023/11/26 07:13:10;;;;;;;58.83;23.50;;;;;;;1.97;100.00;101273.59;5061060;28;20415;-73
2023/11/26 07:15:37;;;;;;;59.05;22.38;;;;;;;1.98;100.00;101270.13;5060088;28;20048;-74
2023/11/26 07:18:03;;;;;;;58.28;23.42;;;;;;;1.94;100.00;101270.31;5045384;28;20115;-74
2023/11/26 07:20:28;;;;;;;54.35;24.70;;;;;;;2.00;100.00;101266.56;5064572;28;20032;-73
2023/11/26 07:22:54;;;;;;;68.63;27.30;;;;;;;1.95;100.00;101268.56;5043538;28;20075;-73
2023/11/26 07:25:19;;;;;;;61.78;24.88;;;;;;;1.98;100.00;101270.97;5058706;28;21225;-73
2023/11/26 07:27:45;;;;;;;61.00;25.33;;;;;;;1.99;100.00;101272.59;5057328;28;20388;-73
2023/11/26 07:30:11;;;;;;;62.83;27.50;;;;;;;2.02;100.00;101277.53;5045496;28;20040;-73
2023/11/26 07:32:37;;;;;;;67.53;28.55;;;;;;;2.08;100.00;101284.03;5045708;28;20024;-74
2023/11/26 07:35:05;;;;;;;72.10;30.65;;;;;;;2.15;100.00;101287.88;5064571;28;20045;-73
2023/11/26 07:37:31;;;;;;;77.88;30.05;;;;;;;2.14;100.00;101284.47;5058507;28;20074;-73
2023/11/26 07:39:56;;;;;;;60.08;25.52;;;;;;;2.29;100.00;101285.31;5058470;28;20466;-73
2023/11/26 07:42:21;;;;;;;84.60;34.35;;;;;;;2.24;100.00;101283.94;5044757;28;20033;-73
2023/11/26 07:44:47;;;;;;;73.95;28.35;;;;;;;2.46;100.00;101280.94;5053877;28;20040;-73
2023/11/26 07:47:12;;;;;;;63.90;29.38;;;;;;;2.49;100.00;101286.72;5062785;28;20032;-73
2023/11/26 07:49:38;;;;;;;70.45;29.45;;;;;;;2.46;100.00;101289.44;5062708;28;20055;-73
2023/11/26 07:52:04;;;;;;;76.10;36.22;;;;;;;2.45;100.00;101284.41;5064950;28;20032;-73
2023/11/26 07:54:29;;;;;;;66.25;27.95;;;;;;;2.52;100.00;101285.69;5046365;28;20037;-73
2023/11/26 07:56:55;;;;;;;84.90;33.30;;;;;;;2.59;100.00;101281.03;5060752;28;20028;-73
2023/11/26 07:59:21;;;;;;;60.10;25.95;;;;;;;2.53;100.00;101285.59;5060428;28;20500;-73
2023/11/26 08:01:50;;;;;;;63.85;26.33;;;;;;;2.60;100.00;101283.53;5058787;28;20033;-73
2023/11/26 08:04:17;;;;;;;61.17;24.20;;;;;;;2.64;100.00;101297.78;5062282;28;20490;-73
2023/11/26 08:06:46;;;;;;;60.83;23.85;;;;;;;2.81;100.00;101291.63;5061665;28;20082;-73
2023/11/26 08:09:14;;;;;;;67.53;22.75;;;;;;;2.77;100.00;101297.03;5061209;28;20040;-73
2023/11/26 08:11:44;;;;;;;64.55;27.05;;;;;;;2.81;100.00;101285.69;5063903;28;20063;-73
2023/11/26 08:14:12;;;;;;;73.07;26.75;;;;;;;2.83;100.00;101287.25;5063418;28;20071;-73
2023/11/26 08:16:39;;;;;;;57.15;24.15;;;;;;;2.83;100.00;101284.69;5057495;28;20577;-73
2023/11/26 08:19:11;;;;;;;58.42;23.95;;;;;;;2.89;100.00;101288.59;5053624;28;20028;-73
2023/11/26 08:21:37;;;;;;;54.92;24.40;;;;;;;2.94;100.00;101286.59;5052386;28;20044;-73
2023/11/26 08:24:07;;;;;;;67.70;26.17;;;;;;;3.00;100.00;101283.63;5059825;28;20631;-73
2023/11/26 08:26:35;;;;;;;74.30;36.63;;;;;;;3.09;100.00;101285.63;5039955;28;20048;-73
2023/11/26 08:29:01;;;;;;;55.40;25.02;;;;;;;3.22;100.00;101282.28;5061749;28;20108;-73
2023/11/26 08:31:27;;;;;;;75.88;31.52;;;;;;;3.20;100.00;101287.53;5056263;28;20120;-73
2023/11/26 08:33:55;;;;;;;67.47;30.52;;;;;;;3.18;100.00;101285.97;5056237;28;20100;-73
2023/11/26 08:36:20;;;;;;;80.38;31.80;;;;;;;3.25;100.00;101277.78;5059756;28;20120;-72
2023/11/26 08:38:47;;;;;;;71.68;28.77;;;;;;;3.27;100.00;101288.78;5062305;28;20119;-72
2023/11/26 08:41:14;;;;;;;65.97;28.63;;;;;;;3.31;100.00;101284.28;5065465;28;20529;-73
2023/11/26 08:43:43;;;;;;;68.80;28.20;;;;;;;3.35;100.00;101284.91;5066188;28;20032;-73
2023/11/26 08:46:09;;;;;;;55.10;24.40;;;;;;;3.45;100.00;101286.78;5065522;28;20036;-73
2023/11/26 08:48:36;;;;;;;67.07;26.95;;;;;;;3.47;100.00;101284.16;5049823;28;20072;-72
2023/11/26 08:51:02;;;;;;;67.57;30.10;;;;;;;3.43;100.00;101282.69;5063761;28;20029;-72
2023/11/26 08:53:28;;;;;;;72.57;29.58;;;;;;;3.58;100.00;101288.56;5063399;28;20036;-72
2023/11/26 08:55:55;;;;;;;66.30;28.80;;;;;;;3.62;100.00;101280.59;5061916;28;20036;-73
2023/11/26 08:58:20;;;;;;;75.22;29.45;;;;;;;3.63;100.00;101289.09;5063916;28;20119;-72
2023/11/26 09:00:46;;;;;;;71.82;27.98;;;;;;;3.61;100.00;101281.50;5062646;28;20055;-73
2023/11/26 09:03:12;;;;;;;72.30;29.85;;;;;;;3.60;100.00;101281.59;5064046;28;20457;-73
2023/11/26 09:05:37;;;;;;;74.97;33.97;;;;;;;3.74;100.00;101280.72;5064332;28;20040;-73
2023/11/26 09:08:03;;;;;;;78.28;33.70;;;;;;;3.68;100.00;101280.19;5064810;28;20028;-73
2023/11/26 09:10:29;;;;;;;92.75;36.17;;;;;;;3.67;100.00;101281.13;5066673;28;20122;-73
2023/11/26 09:12:54;;;;;;;94.63;37.85;;;;;;;3.67;100.00;101273.44;5061150;28;20029;-73
2023/11/26 09:15:20;;;;;;;84.90;33.53;;;;;;;3.76;100.00;101278.88;5065442;28;20384;-73
2023/11/26 09:17:47;;;;;;;70.18;32.20;;;;;;;3.84;100.00;101271.47;5065775;28;20039;-73
2023/11/26 09:20:12;;;;;;;70.20;30.27;;;;;;;3.96;100.00;101270.69;5064743;28;20037;-73
2023/11/26 09:22:39;;;;;;;74.15;28.38;;;;;;;3.92;100.00;101265.84;5065133;28;20514;-73
2023/11/26 09:25:06;;;;;;;67.63;29.00;;;;;;;3.92;100.00;101268.41;5061765;28;20043;-73
2023/11/26 09:27:32;;;;;;;72.85;27.85;;;;;;;3.96;100.00;101273.25;5059411;28;20064;-73
2023/11/26 09:29:58;;;;;;;61.33;27.27;;;;;;;4.04;100.00;101271.00;5048974;28;20048;-72
2023/11/26 09:32:23;;;;;;;64.57;26.77;;;;;;;4.03;100.00;101276.22;5052064;28;20071;-73
2023/11/26 09:34:52;;;;;;;71.10;27.35;;;;;;;4.22;100.00;101273.25;5064334;28;20043;-73
2023/11/26 09:37:19;;;;;;;65.88;28.40;;;;;;;4.23;100.00;101273.16;5065645;28;20029;-73
2023/11/26 09:39:44;;;;;;;72.68;27.45;;;;;;;4.20;100.00;101278.50;5062899;28;20024;-73
2023/11/26 09:42:11;;;;;;;64.35;27.42;;;;;;;4.26;100.00;101278.09;5067959;28;20048;-73
2023/11/26 09:44:37;;;;;;;57.38;26.25;;;;;;;4.29;100.00;101275.31;5062924;28;20043;-73
2023/11/26 09:47:03;;;;;;;59.03;24.88;;;;;;;4.43;100.00;101283.84;5063700;28;20032;-73
2023/11/26 09:49:28;;;;;;;66.43;25.23;;;;;;;4.41;100.00;101275.41;5064576;28;20918;-73
2023/11/26 09:51:56;;;;;;;57.10;24.45;;;;;;;4.38;100.00;101280.75;5063951;28;20039;-73
2023/11/26 09:54:23;;;;;;;64.18;28.40;;;;;;;4.36;100.00;101280.84;5055747;28;20638;-74
2023/11/26 09:56:55;;;;;;;60.40;28.08;;;;;;;4.49;100.00;101271.38;5062089;28;20033;-72
2023/11/26 09:59:30;;;;;;;59.35;26.42;;;;;;;4.52;100.00;101264.41;5046303;28;20032;-72
2023/11/26 10:01:55;;;;;;;66.63;28.38;;;;;;;4.56;100.00;101266.66;5062953;28;20039;-72
2023/11/26 10:04:22;;;;;;;72.07;27.75;;;;;;;4.63;100.00;101261.91;5064043;28;20020;-72
2023/11/26 10:06:55;;;;;;;76.75;33.42;;;;;;;4.64;100.00;101261.00;5065052;28;20032;-72
2023/11/26 10:09:22;;;;;;;68.90;30.77;;;;;;;4.65;100.00;101260.91;5045060;28;20441;-72
2023/11/26 10:11:48;;;;;;;65.95;29.30;;;;;;;4.64;100.00;101255.84;5068846;28;20044;-73
2023/11/26 10:14:21;;;;;;;71.53;29.13;;;;;;;4.64;100.00;101261.00;5062257;28;20111;-73
2023/11/26 10:16:47;;;;;;;;;;;;;;;4.60;100.00;101257.00;5047484;28;20087;-73
2023/11/26 10:19:27;;;;;;;58.35;25.10;;;;;;;4.78;100.00;101254.88;5066525;28;19920;-73
2023/11/26 10:21:54;;;;;;;59.85;25.83;;;;;;;4.74;100.00;101256.03;5057609;28;20039;-74
2023/11/26 10:24:22;;;;;;;55.17;24.13;;;;;;;4.73;100.00;101244.09;5059263;28;20064;-72
2023/11/26 10:26:51;;;;;;;67.53;27.70;;;;;;;4.76;100.00;101257.56;5063821;28;20515;-73
2023/11/26 10:29:20;;;;;;;59.97;25.27;;;;;;;4.77;100.00;101254.06;5048810;28;20415;-73
2023/11/26 10:31:58;;;;;;;60.50;27.75;;;;;;;4.73;100.00;101255.22;5058252;28;20043;-73
2023/11/26 10:34:24;;;;;;;62.53;29.35;;;;;;;4.71;100.00;101258.81;5065001;28;20044;-73
2023/11/26 10:36:49;;;;;;;64.70;28.45;;;;;;;4.67;100.00;101255.63;5045235;28;20049;-74
2023/11/26 10:39:15;;;;;;;58.15;27.92;;;;;;;4.79;100.00;101248.84;5056245;28;20054;-73
2023/11/26 10:41:41;;;;;;;63.10;27.52;;;;;;;4.80;100.00;101251.31;5060573;28;20041;-73
2023/11/26 10:44:07;;;;;;;69.07;28.50;;;;;;;4.85;100.00;101250.97;5065677;28;20033;-73
2023/11/26 10:46:34;;;;;;;59.22;27.75;;;;;;;4.86;100.00;101250.88;5062228;28;20036;-73
2023/11/26 10:49:25;;;;;;;67.97;29.65;;;;;;;4.88;100.00;101243.88;5059776;28;20695;-73
2023/11/26 10:52:06;;;;;;;64.25;28.65;;;;;;;4.98;100.00;101238.88;5073250;28;20521;-73
2023/11/26 10:55:02;;;;;;;68.72;29.00;;;;;;;5.00;100.00;101231.88;5064513;28;20119;-74
2023/11/26 10:57:38;;;;;;;60.95;27.45;;;;;;;4.92;100.00;101236.75;5065924;28;20482;-73
2023/11/26 11:00:07;;;;;;;61.72;27.20;;;;;;;5.12;100.00;101237.09;5044396;28;20032;-73
2023/11/26 11:02:34;;;;;;;60.83;27.85;;;;;;;5.22;100.00;101232.94;5046499;28;20419;-73
2023/11/26 11:05:00;;;;;;;56.92;27.15;;;;;;;5.23;100.00;101229.41;5063950;28;20508;-73
2023/11/26 11:07:28;;;;;;;68.68;28.73;;;;;;;5.30;100.00;101232.38;5060128;28;20138;-73
2023/11/26 11:10:31;;;;;;;68.13;31.20;;;;;;;5.28;100.00;101237.63;5061787;28;20040;-73
2023/11/26 11:13:15;;;;;;;62.08;25.90;;;;;;;5.54;100.00;101235.75;5063272;28;20491;-74